sensor_id;sensor_type;location;lat;lon;timestamp;pressure;altitude;pressure_sealevel;temperature;humidity
37132;BME280;23035;50.032;21.978;2023-04-26T00:05:01;65833.41;;;6.31;100.00
37132;BME280;23035;50.032;21.978;2023-04-26T00:10:08;65839.72;;;6.35;100.00
37132;BME280;23035;50.032;21.978;2023-04-26T00:15:13;65838.13;;;6.33;100.00
37132;BME280;23035;50.032;21.978;2023-04-26T00:20:17;65857.28;;;6.49;100.00
37132;BME280;23035;50.032;21.978;2023-04-26T00:25:21;65859.06;;;6.55;100.00
37132;BME280;23035;50.032;21.978;2023-04-26T00:30:27;65830.84;;;6.31;100.00
37132;BME280;23035;50.032;21.978;2023-04-26T00:35:31;65837.06;;;6.32;100.00
37132;BME280;23035;50.032;21.978;2023-04-26T00:40:34;65803.41;;;6.00;100.00
37132;BME280;23035;50.032;21.978;2023-04-26T00:45:40;65846.88;;;6.46;100.00
37132;BME280;23035;50.032;21.978;2023-04-26T00:50:45;65796.44;;;5.93;100.00
37132;BME280;23035;50.032;21.978;2023-04-26T00:55:50;65886.34;;;6.81;100.00
37132;BME280;23035;50.032;21.978;2023-04-26T01:00:57;65866.38;;;6.57;100.00
37132;BME280;23035;50.032;21.978;2023-04-26T01:06:00;65936.44;;;7.24;100.00
37132;BME280;23035;50.032;21.978;2023-04-26T01:11:04;65834.94;;;6.30;100.00
37132;BME280;23035;50.032;21.978;2023-04-26T01:16:10;65874.47;;;6.68;100.00
37132;BME280;23035;50.032;21.978;2023-04-26T01:21:18;65919.50;;;7.13;100.00
37132;BME280;23035;50.032;21.978;2023-04-26T01:26:25;65845.63;;;6.40;100.00
37132;BME280;23035;50.032;21.978;2023-04-26T01:31:29;65911.91;;;7.03;100.00
37132;BME280;23035;50.032;21.978;2023-04-26T01:36:33;65874.47;;;6.68;100.00
37132;BME280;23035;50.032;21.978;2023-04-26T01:41:38;65778.69;;;5.74;100.00
37132;BME280;23035;50.032;21.978;2023-04-26T01:46:42;65827.97;;;6.23;100.00
37132;BME280;23035;50.032;21.978;2023-04-26T01:51:47;65890.69;;;6.88;100.00
37132;BME280;23035;50.032;21.978;2023-04-26T01:56:52;65845.72;;;6.43;100.00
37132;BME280;23035;50.032;21.978;2023-04-26T02:01:56;65814.72;;;6.13;100.00
37132;BME280;23035;50.032;21.978;2023-04-26T02:07:01;65813.72;;;6.15;100.00
37132;BME280;23035;50.032;21.978;2023-04-26T02:12:06;65825.75;;;6.19;100.00
37132;BME280;23035;50.032;21.978;2023-04-26T02:17:10;65793.78;;;5.91;100.00
37132;BME280;23035;50.032;21.978;2023-04-26T02:22:14;65818.44;;;6.17;100.00
37132;BME280;23035;50.032;21.978;2023-04-26T02:27:20;65844.00;;;6.39;100.00
37132;BME280;23035;50.032;21.978;2023-04-26T02:32:24;65880.91;;;6.74;100.00
37132;BME280;23035;50.032;21.978;2023-04-26T02:37:28;65864.84;;;6.58;100.00
37132;BME280;23035;50.032;21.978;2023-04-26T02:42:33;65862.28;;;6.58;100.00
37132;BME280;23035;50.032;21.978;2023-04-26T02:47:37;65873.94;;;6.67;100.00
37132;BME280;23035;50.032;21.978;2023-04-26T02:52:41;65797.06;;;5.96;100.00
37132;BME280;23035;50.032;21.978;2023-04-26T02:57:47;65867.63;;;6.64;100.00
37132;BME280;23035;50.032;21.978;2023-04-26T03:02:51;65820.16;;;6.21;100.00
37132;BME280;23035;50.032;21.978;2023-04-26T03:07:55;65782.72;;;5.85;100.00
37132;BME280;23035;50.032;21.978;2023-04-26T03:13:01;65828.06;;;6.26;100.00
37132;BME280;23035;50.032;21.978;2023-04-26T03:18:06;65819.44;;;6.15;100.00
37132;BME280;23035;50.032;21.978;2023-04-26T03:23:10;65811.31;;;6.05;100.00
37132;BME280;23035;50.032;21.978;2023-04-26T03:28:16;65769.81;;;5.70;100.00
37132;BME280;23035;50.032;21.978;2023-04-26T03:33:20;65753.25;;;5.55;100.00
37132;BME280;23035;50.032;21.978;2023-04-26T03:38:24;65748.34;;;5.47;100.00
37132;BME280;23035;50.032;21.978;2023-04-26T03:43:30;65817.38;;;6.16;100.00
37132;BME280;23035;50.032;21.978;2023-04-26T03:48:34;65787.97;;;5.88;100.00
37132;BME280;23035;50.032;21.978;2023-04-26T03:53:39;65843.47;;;6.38;100.00
37132;BME280;23035;50.032;21.978;2023-04-26T03:58:45;65840.81;;;6.36;100.00
37132;BME280;23035;50.032;21.978;2023-04-26T04:03:49;65830.19;;;6.28;100.00
37132;BME280;23035;50.032;21.978;2023-04-26T04:08:53;65853.09;;;6.47;100.00
37132;BME280;23035;50.032;21.978;2023-04-26T04:13:59;65825.94;;;6.24;100.00
37132;BME280;23035;50.032;21.978;2023-04-26T04:19:04;65824.66;;;6.18;100.00
37132;BME280;23035;50.032;21.978;2023-04-26T04:24:08;65810.88;;;6.07;100.00
37132;BME280;23035;50.032;21.978;2023-04-26T04:29:14;65783.63;;;5.81;100.00
37132;BME280;23035;50.032;21.978;2023-04-26T04:34:18;65866.56;;;6.63;100.00
37132;BME280;23035;50.032;21.978;2023-04-26T04:39:23;65844.66;;;6.42;100.00
37132;BME280;23035;50.032;21.978;2023-04-26T04:44:29;65825.41;;;6.23;100.00
37132;BME280;23035;50.032;21.978;2023-04-26T04:49:34;65861.66;;;6.55;100.00
37132;BME280;23035;50.032;21.978;2023-04-26T04:54:39;65835.56;;;6.33;100.00
37132;BME280;23035;50.032;21.978;2023-04-26T04:59:44;65853.00;;;6.45;100.00
37132;BME280;23035;50.032;21.978;2023-04-26T05:04:48;65879.38;;;6.75;100.00
37132;BME280;23035;50.032;21.978;2023-04-26T05:09:53;65842.50;;;6.40;100.00
37132;BME280;23035;50.032;21.978;2023-04-26T05:14:59;65913.06;;;7.07;100.00
37132;BME280;23035;50.032;21.978;2023-04-26T05:20:03;65878.84;;;6.74;100.00
37132;BME280;23035;50.032;21.978;2023-04-26T05:25:09;65908.19;;;7.00;100.00
37132;BME280;23035;50.032;21.978;2023-04-26T05:30:15;65986.19;;;7.71;100.00
37132;BME280;23035;50.032;21.978;2023-04-26T05:35:23;65854.28;;;6.51;100.00
37132;BME280;23035;50.032;21.978;2023-04-26T05:40:27;65915.66;;;7.07;100.00
37132;BME280;23035;50.032;21.978;2023-04-26T05:45:33;65856.94;;;6.53;100.00
37132;BME280;23035;50.032;21.978;2023-04-26T05:50:37;65847.75;;;6.42;100.00
37132;BME280;23035;50.032;21.978;2023-04-26T05:55:42;65855.97;;;6.55;100.00
37132;BME280;23035;50.032;21.978;2023-04-26T06:00:47;65862.81;;;6.59;100.00
37132;BME280;23035;50.032;21.978;2023-04-26T06:05:52;65851.25;;;6.53;100.00
37132;BME280;23035;50.032;21.978;2023-04-26T06:10:57;65926.00;;;7.22;100.00
37132;BME280;23035;50.032;21.978;2023-04-26T06:16:04;65918.50;;;7.14;100.00
37132;BME280;23035;50.032;21.978;2023-04-26T06:21:08;65930.63;;;7.21;100.00
37132;BME280;23035;50.032;21.978;2023-04-26T06:26:12;65918.44;;;7.12;100.00
37132;BME280;23035;50.032;21.978;2023-04-26T06:31:17;65899.72;;;6.94;100.00
37132;BME280;23035;50.032;21.978;2023-04-26T06:36:24;65863.97;;;6.63;100.00
37132;BME280;23035;50.032;21.978;2023-04-26T06:41:29;65948.84;;;7.38;100.00
37132;BME280;23035;50.032;21.978;2023-04-26T06:46:35;65922.06;;;7.13;100.00
37132;BME280;23035;50.032;21.978;2023-04-26T06:51:42;65960.69;;;7.52;100.00
37132;BME280;23035;50.032;21.978;2023-04-26T06:56:46;65873.41;;;6.67;100.00
37132;BME280;23035;50.032;21.978;2023-04-26T07:01:51;65861.13;;;6.55;100.00
37132;BME280;23035;50.032;21.978;2023-04-26T07:06:55;65851.50;;;6.46;100.00
37132;BME280;23035;50.032;21.978;2023-04-26T07:11:59;65850.50;;;6.47;100.00
37132;BME280;23035;50.032;21.978;2023-04-26T07:17:05;65914.69;;;7.08;100.00
37132;BME280;23035;50.032;21.978;2023-04-26T07:22:09;65958.34;;;7.45;100.00
37132;BME280;23035;50.032;21.978;2023-04-26T07:27:13;66022.75;;;8.11;100.00
37132;BME280;23035;50.032;21.978;2023-04-26T07:32:19;65976.19;;;7.67;100.00
37132;BME280;23035;50.032;21.978;2023-04-26T07:37:23;65907.72;;;7.02;100.00
37132;BME280;23035;50.032;21.978;2023-04-26T07:42:27;66003.50;;;7.93;100.00
37132;BME280;23035;50.032;21.978;2023-04-26T07:47:32;65963.88;;;7.55;100.00
37132;BME280;23035;50.032;21.978;2023-04-26T07:52:36;66059.19;;;8.46;100.00
37132;BME280;23035;50.032;21.978;2023-04-26T07:57:40;66025.97;;;8.14;100.00
37132;BME280;23035;50.032;21.978;2023-04-26T08:02:46;66012.69;;;8.04;100.00
37132;BME280;23035;50.032;21.978;2023-04-26T08:07:50;66018.66;;;8.12;100.00
37132;BME280;23035;50.032;21.978;2023-04-26T08:12:55;66032.03;;;8.25;100.00
37132;BME280;23035;50.032;21.978;2023-04-26T08:18:01;66058.22;;;8.47;99.41
37132;BME280;23035;50.032;21.978;2023-04-26T08:23:05;66113.81;;;8.98;100.00
37132;BME280;23035;50.032;21.978;2023-04-26T08:28:09;66059.72;;;8.46;97.79
37132;BME280;23035;50.032;21.978;2023-04-26T08:33:18;66073.13;;;8.59;95.73
37132;BME280;23035;50.032;21.978;2023-04-26T08:38:22;66019.09;;;8.10;98.97
37132;BME280;23035;50.032;21.978;2023-04-26T08:43:27;66129.97;;;9.15;88.36
37132;BME280;23035;50.032;21.978;2023-04-26T08:48:33;66077.50;;;8.66;93.69
37132;BME280;23035;50.032;21.978;2023-04-26T08:53:39;66096.06;;;8.78;96.18
37132;BME280;23035;50.032;21.978;2023-04-26T08:58:44;65994.94;;;7.85;94.19
37132;BME280;23035;50.032;21.978;2023-04-26T09:03:50;66047.50;;;8.37;94.41
37132;BME280;23035;50.032;21.978;2023-04-26T09:08:55;66134.88;;;9.23;80.28
37132;BME280;23035;50.032;21.978;2023-04-26T09:14:00;66223.03;;;9.99;77.36
37132;BME280;23035;50.032;21.978;2023-04-26T09:19:05;66122.94;;;9.06;81.49
37132;BME280;23035;50.032;21.978;2023-04-26T09:24:09;66111.56;;;8.93;84.50
37132;BME280;23035;50.032;21.978;2023-04-26T09:29:15;66011.00;;;8.00;87.31
37132;BME280;23035;50.032;21.978;2023-04-26T09:34:20;66121.75;;;9.03;85.56
37132;BME280;23035;50.032;21.978;2023-04-26T09:39:31;66087.66;;;8.75;87.59
37132;BME280;23035;50.032;21.978;2023-04-26T09:44:36;66085.97;;;8.71;88.48
37132;BME280;23035;50.032;21.978;2023-04-26T09:49:45;66139.53;;;9.22;78.35
37132;BME280;23035;50.032;21.978;2023-04-26T09:54:51;66169.06;;;9.53;77.98
37132;BME280;23035;50.032;21.978;2023-04-26T09:59:56;66199.63;;;9.82;74.81
37132;BME280;23035;50.032;21.978;2023-04-26T10:05:06;66098.81;;;8.83;77.99
37132;BME280;23035;50.032;21.978;2023-04-26T10:10:11;66041.50;;;8.29;82.94
37132;BME280;23035;50.032;21.978;2023-04-26T10:15:15;66054.81;;;8.39;79.77
37132;BME280;23035;50.032;21.978;2023-04-26T10:20:23;66046.84;;;8.34;80.00
37132;BME280;23035;50.032;21.978;2023-04-26T10:25:37;66135.78;;;9.18;74.34
37132;BME280;23035;50.032;21.978;2023-04-26T10:30:54;66126.22;;;9.12;75.18
37132;BME280;23035;50.032;21.978;2023-04-26T10:36:10;66142.13;;;9.22;77.68
37132;BME280;23035;50.032;21.978;2023-04-26T10:41:32;66145.59;;;9.33;74.32
37132;BME280;23035;50.032;21.978;2023-04-26T10:46:39;66075.69;;;8.59;76.82
37132;BME280;23035;50.032;21.978;2023-04-26T10:52:14;66128.81;;;9.12;71.85
37132;BME280;23035;50.032;21.978;2023-04-26T10:57:19;66154.34;;;9.31;72.79
37132;BME280;23035;50.032;21.978;2023-04-26T11:02:44;66199.72;;;9.84;72.75
37132;BME280;23035;50.032;21.978;2023-04-26T11:08:02;66177.19;;;9.63;70.64
37132;BME280;23035;50.032;21.978;2023-04-26T11:13:06;66180.25;;;9.61;70.59
37132;BME280;23035;50.032;21.978;2023-04-26T11:18:10;66107.38;;;8.91;71.01
37132;BME280;23035;50.032;21.978;2023-04-26T11:23:17;66061.34;;;8.48;69.34
37132;BME280;23035;50.032;21.978;2023-04-26T11:28:21;66117.03;;;9.01;63.46
37132;BME280;23035;50.032;21.978;2023-04-26T11:33:25;66212.59;;;9.96;63.32
37132;BME280;23035;50.032;21.978;2023-04-26T11:38:31;66169.06;;;9.53;64.19
37132;BME280;23035;50.032;21.978;2023-04-26T11:43:36;66138.63;;;9.26;63.98
37132;BME280;23035;50.032;21.978;2023-04-26T11:48:40;66196.34;;;9.76;61.39
37132;BME280;23035;50.032;21.978;2023-04-26T11:53:46;66167.38;;;9.48;62.61
37132;BME280;23035;50.032;21.978;2023-04-26T11:58:51;66231.16;;;10.09;60.37
37132;BME280;23035;50.032;21.978;2023-04-26T12:03:56;66213.13;;;9.97;57.20
37132;BME280;23035;50.032;21.978;2023-04-26T12:09:02;66292.94;;;10.70;57.67
37132;BME280;23035;50.032;21.978;2023-04-26T12:14:07;66273.19;;;10.54;57.17
37132;BME280;23035;50.032;21.978;2023-04-26T12:19:13;66198.38;;;9.75;60.41
37132;BME280;23035;50.032;21.978;2023-04-26T12:24:23;66213.94;;;9.90;59.80
37132;BME280;23035;50.032;21.978;2023-04-26T12:29:28;66084.34;;;8.70;64.38
37132;BME280;23035;50.032;21.978;2023-04-26T12:34:33;66105.25;;;8.89;65.00
37132;BME280;23035;50.032;21.978;2023-04-26T12:39:38;66109.53;;;8.94;62.30
37132;BME280;23035;50.032;21.978;2023-04-26T12:44:42;66098.81;;;8.83;59.08
37132;BME280;23035;50.032;21.978;2023-04-26T12:49:46;66101.06;;;8.88;60.25
37132;BME280;23035;50.032;21.978;2023-04-26T12:54:52;66116.56;;;9.03;57.10
37132;BME280;23035;50.032;21.978;2023-04-26T12:59:56;66190.97;;;9.71;56.80
37132;BME280;23035;50.032;21.978;2023-04-26T13:05:00;66450.84;;;12.22;48.73
37132;BME280;23035;50.032;21.978;2023-04-26T13:10:09;66349.91;;;11.27;48.55
37132;BME280;23035;50.032;21.978;2023-04-26T13:15:14;66401.25;;;11.70;51.68
37132;BME280;23035;50.032;21.978;2023-04-26T13:20:19;66554.00;;;13.20;47.84
37132;BME280;23035;50.032;21.978;2023-04-26T13:25:27;66326.13;;;10.99;55.88
37132;BME280;23035;50.032;21.978;2023-04-26T13:30:31;66220.00;;;10.01;59.89
37132;BME280;23035;50.032;21.978;2023-04-26T13:35:35;66108.56;;;8.95;60.41
37132;BME280;23035;50.032;21.978;2023-04-26T13:40:41;66171.13;;;9.52;60.12
37132;BME280;23035;50.032;21.978;2023-04-26T13:45:45;66211.97;;;9.93;56.13
37132;BME280;23035;50.032;21.978;2023-04-26T13:50:49;66230.03;;;10.05;57.67
37132;BME280;23035;50.032;21.978;2023-04-26T13:55:54;66211.88;;;9.91;52.79
37132;BME280;23035;50.032;21.978;2023-04-26T14:00:58;66357.22;;;11.29;50.55
37132;BME280;23035;50.032;21.978;2023-04-26T14:06:03;66543.13;;;13.07;45.74
37132;BME280;23035;50.032;21.978;2023-04-26T14:11:08;66275.25;;;10.53;52.05
37132;BME280;23035;50.032;21.978;2023-04-26T14:16:13;66192.13;;;9.74;55.32
37132;BME280;23035;50.032;21.978;2023-04-26T14:21:18;66153.00;;;9.37;59.59
37132;BME280;23035;50.032;21.978;2023-04-26T14:26:24;66182.22;;;9.58;59.28
37132;BME280;23035;50.032;21.978;2023-04-26T14:31:28;66070.06;;;8.61;61.29
37132;BME280;23035;50.032;21.978;2023-04-26T14:36:33;66413.09;;;11.82;51.52
37132;BME280;23035;50.032;21.978;2023-04-26T14:41:41;66465.72;;;12.31;45.99
37132;BME280;23035;50.032;21.978;2023-04-26T14:46:45;66467.31;;;12.33;47.16
37132;BME280;23035;50.032;21.978;2023-04-26T14:51:53;66567.81;;;13.28;42.85
37132;BME280;23035;50.032;21.978;2023-04-26T14:56:58;66463.09;;;12.31;46.35
37132;BME280;23035;50.032;21.978;2023-04-26T15:02:03;66345.44;;;11.17;47.26
37132;BME280;23035;50.032;21.978;2023-04-26T15:07:07;66407.75;;;11.79;47.72
37132;BME280;23035;50.032;21.978;2023-04-26T15:12:23;66448.50;;;12.15;43.14
37132;BME280;23035;50.032;21.978;2023-04-26T15:17:30;66259.16;;;10.38;48.14
37132;BME280;23035;50.032;21.978;2023-04-26T15:22:34;66265.06;;;10.44;48.70
37132;BME280;23035;50.032;21.978;2023-04-26T15:27:41;66331.09;;;11.09;50.01
37132;BME280;23035;50.032;21.978;2023-04-26T15:32:47;66318.16;;;10.94;49.94
37132;BME280;23035;50.032;21.978;2023-04-26T15:37:52;66153.47;;;9.35;53.71
37132;BME280;23035;50.032;21.978;2023-04-26T15:42:57;66105.06;;;8.84;57.42
37132;BME280;23035;50.032;21.978;2023-04-26T15:48:01;66191.69;;;9.76;55.28
37132;BME280;23035;50.032;21.978;2023-04-26T15:53:05;66238.59;;;10.14;55.04
37132;BME280;23035;50.032;21.978;2023-04-26T15:58:11;66317.53;;;10.91;54.09
37132;BME280;23035;50.032;21.978;2023-04-26T16:03:15;66380.41;;;11.53;49.67
37132;BME280;23035;50.032;21.978;2023-04-26T16:08:19;66290.19;;;10.65;51.10
37132;BME280;23035;50.032;21.978;2023-04-26T16:13:43;66309.56;;;10.86;48.31
37132;BME280;23035;50.032;21.978;2023-04-26T16:18:47;66253.34;;;10.35;50.09
37132;BME280;23035;50.032;21.978;2023-04-26T16:23:51;66251.66;;;10.31;49.76
37132;BME280;23035;50.032;21.978;2023-04-26T16:28:56;66170.31;;;9.59;52.18
37132;BME280;23035;50.032;21.978;2023-04-26T16:34:00;66001.88;;;7.91;59.89
37132;BME280;23035;50.032;21.978;2023-04-26T16:39:04;66038.84;;;8.26;61.20
37132;BME280;23035;50.032;21.978;2023-04-26T16:44:10;66003.94;;;7.91;62.48
37132;BME280;23035;50.032;21.978;2023-04-26T16:49:14;66031.41;;;8.22;62.54
37132;BME280;23035;50.032;21.978;2023-04-26T16:54:18;65987.88;;;7.75;62.51
37132;BME280;23035;50.032;21.978;2023-04-26T16:59:24;65977.91;;;7.71;64.35
37132;BME280;23035;50.032;21.978;2023-04-26T17:04:29;65964.97;;;7.56;61.74
37132;BME280;23035;50.032;21.978;2023-04-26T17:09:33;65949.44;;;7.41;62.89
37132;BME280;23035;50.032;21.978;2023-04-26T17:14:41;65988.50;;;7.79;62.59
37132;BME280;23035;50.032;21.978;2023-04-26T17:19:45;65996.00;;;7.86;62.45
37132;BME280;23035;50.032;21.978;2023-04-26T17:24:49;66033.47;;;8.21;61.18
37132;BME280;23035;50.032;21.978;2023-04-26T17:29:54;66099.00;;;8.88;58.99
37132;BME280;23035;50.032;21.978;2023-04-26T17:34:58;66069.47;;;8.58;61.04
37132;BME280;23035;50.032;21.978;2023-04-26T17:40:03;66063.63;;;8.55;61.37
37132;BME280;23035;50.032;21.978;2023-04-26T17:45:11;65995.91;;;7.83;65.95
37132;BME280;23035;50.032;21.978;2023-04-26T17:50:16;66028.75;;;8.19;64.14
37132;BME280;23035;50.032;21.978;2023-04-26T17:55:22;65939.75;;;7.30;68.27
37132;BME280;23035;50.032;21.978;2023-04-26T18:00:28;65973.06;;;7.66;67.47
37132;BME280;23035;50.032;21.978;2023-04-26T18:05:32;65943.66;;;7.38;68.88
37132;BME280;23035;50.032;21.978;2023-04-26T18:10:36;65973.53;;;7.64;67.69
37132;BME280;23035;50.032;21.978;2023-04-26T18:15:41;65986.81;;;7.74;67.20
37132;BME280;23035;50.032;21.978;2023-04-26T18:20:45;65906.59;;;6.98;72.01
37132;BME280;23035;50.032;21.978;2023-04-26T18:25:49;65936.63;;;7.29;70.25
37132;BME280;23035;50.032;21.978;2023-04-26T18:30:56;65936.50;;;7.27;70.79
37132;BME280;23035;50.032;21.978;2023-04-26T18:36:00;65966.66;;;7.60;68.17
37132;BME280;23035;50.032;21.978;2023-04-26T18:41:04;65934.38;;;7.25;70.70
37132;BME280;23035;50.032;21.978;2023-04-26T18:46:10;65896.50;;;6.91;70.91
37132;BME280;23035;50.032;21.978;2023-04-26T18:51:14;65908.34;;;7.05;71.34
37132;BME280;23035;50.032;21.978;2023-04-26T18:56:18;65780.59;;;5.83;80.17
37132;BME280;23035;50.032;21.978;2023-04-26T19:01:24;65829.78;;;6.30;76.62
37132;BME280;23035;50.032;21.978;2023-04-26T19:06:28;65848.91;;;6.46;77.77
37132;BME280;23035;50.032;21.978;2023-04-26T19:11:33;65857.91;;;6.52;76.45
37132;BME280;23035;50.032;21.978;2023-04-26T19:16:38;65831.91;;;6.32;76.54
37132;BME280;23035;50.032;21.978;2023-04-26T19:21:42;65843.03;;;6.40;77.33
37132;BME280;23035;50.032;21.978;2023-04-26T19:26:46;65854.81;;;6.51;75.87
37132;BME280;23035;50.032;21.978;2023-04-26T19:31:51;65860.66;;;6.57;76.40
37132;BME280;23035;50.032;21.978;2023-04-26T19:36:56;65815.88;;;6.17;76.52
37132;BME280;23035;50.032;21.978;2023-04-26T19:42:00;65765.09;;;5.68;79.55
37132;BME280;23035;50.032;21.978;2023-04-26T19:47:06;65771.41;;;5.72;80.70
37132;BME280;23035;50.032;21.978;2023-04-26T19:52:10;65779.06;;;5.84;80.19
37132;BME280;23035;50.032;21.978;2023-04-26T19:57:15;65738.28;;;5.40;82.63
37132;BME280;23035;50.032;21.978;2023-04-26T20:02:20;65679.34;;;4.79;89.21
37132;BME280;23035;50.032;21.978;2023-04-26T20:07:24;65691.31;;;4.96;88.49
37132;BME280;23035;50.032;21.978;2023-04-26T20:12:29;65701.44;;;5.05;87.92
37132;BME280;23035;50.032;21.978;2023-04-26T20:17:34;65707.31;;;5.11;88.32
37132;BME280;23035;50.032;21.978;2023-04-26T20:22:39;65660.25;;;4.64;91.10
37132;BME280;23035;50.032;21.978;2023-04-26T20:27:43;65615.53;;;4.23;95.88
37132;BME280;23035;50.032;21.978;2023-04-26T20:32:50;65619.25;;;4.27;95.10
37132;BME280;23035;50.032;21.978;2023-04-26T20:37:54;65661.41;;;4.67;92.94
37132;BME280;23035;50.032;21.978;2023-04-26T20:42:59;65723.53;;;5.31;88.63
37132;BME280;23035;50.032;21.978;2023-04-26T20:48:05;65752.19;;;5.54;86.61
37132;BME280;23035;50.032;21.978;2023-04-26T20:53:09;65667.47;;;4.78;92.88
37132;BME280;23035;50.032;21.978;2023-04-26T20:58:13;65682.75;;;4.87;91.70
37132;BME280;23035;50.032;21.978;2023-04-26T21:03:18;65700.56;;;5.09;92.62
37132;BME280;23035;50.032;21.978;2023-04-26T21:08:22;65670.56;;;4.78;93.89
37132;BME280;23035;50.032;21.978;2023-04-26T21:13:27;65707.50;;;5.16;91.61
37132;BME280;23035;50.032;21.978;2023-04-26T21:18:33;65724.41;;;5.27;92.08
37132;BME280;23035;50.032;21.978;2023-04-26T21:23:37;65671.00;;;4.76;96.45
37132;BME280;23035;50.032;21.978;2023-04-26T21:28:41;65665.25;;;4.73;97.97
37132;BME280;23035;50.032;21.978;2023-04-26T21:33:47;65676.34;;;4.81;98.92
37132;BME280;23035;50.032;21.978;2023-04-26T21:38:51;65669.50;;;4.77;97.53
37132;BME280;23035;50.032;21.978;2023-04-26T21:43:55;65665.78;;;4.74;99.18
37132;BME280;23035;50.032;21.978;2023-04-26T21:49:01;65649.03;;;4.53;99.40
37132;BME280;23035;50.032;21.978;2023-04-26T21:54:05;65690.69;;;4.93;96.11
37132;BME280;23035;50.032;21.978;2023-04-26T21:59:09;65722.38;;;5.28;92.46
37132;BME280;23035;50.032;21.978;2023-04-26T22:04:15;65800.03;;;6.07;86.78
37132;BME280;23035;50.032;21.978;2023-04-26T22:09:19;65722.91;;;5.28;91.44
37132;BME280;23035;50.032;21.978;2023-04-26T22:14:24;65641.22;;;4.50;98.60
37132;BME280;23035;50.032;21.978;2023-04-26T22:19:29;65734.75;;;5.42;91.90
37132;BME280;23035;50.032;21.978;2023-04-26T22:24:33;65748.53;;;5.53;91.12
37132;BME280;23035;50.032;21.978;2023-04-26T22:29:37;65798.66;;;5.98;88.69
37132;BME280;23035;50.032;21.978;2023-04-26T22:34:43;65735.28;;;5.42;91.97
37132;BME280;23035;50.032;21.978;2023-04-26T22:39:47;65772.56;;;5.75;87.81
37132;BME280;23035;50.032;21.978;2023-04-26T22:44:51;65828.16;;;6.28;82.83
37132;BME280;23035;50.032;21.978;2023-04-26T22:49:57;65857.56;;;6.56;79.21
37132;BME280;23035;50.032;21.978;2023-04-26T22:55:01;65734.63;;;5.39;89.61
37132;BME280;23035;50.032;21.978;2023-04-26T23:00:06;65807.44;;;6.11;86.02
37132;BME280;23035;50.032;21.978;2023-04-26T23:05:16;65756.53;;;5.60;89.14
37132;BME280;23035;50.032;21.978;2023-04-26T23:10:20;65774.16;;;5.77;89.28
37132;BME280;23035;50.032;21.978;2023-04-26T23:15:24;65784.41;;;5.89;87.55
37132;BME280;23035;50.032;21.978;2023-04-26T23:20:29;65751.56;;;5.51;90.38
37132;BME280;23035;50.032;21.978;2023-04-26T23:25:33;65791.81;;;5.94;88.28
37132;BME280;23035;50.032;21.978;2023-04-26T23:30:38;65782.19;;;5.85;88.55
37132;BME280;23035;50.032;21.978;2023-04-26T23:35:43;65833.50;;;6.33;85.63
37132;BME280;23035;50.032;21.978;2023-04-26T23:40:47;65851.03;;;6.48;86.34
37132;BME280;23035;50.032;21.978;2023-04-26T23:45:51;65825.94;;;6.24;87.22
37132;BME280;23035;50.032;21.978;2023-04-26T23:50:57;65801.44;;;6.03;89.64
37132;BME280;23035;50.032;21.978;2023-04-26T23:56:01;65840.88;;;6.38;88.04
